createdAt,value
2024-01-20T00:01:41.942Z,80.37
2024-01-20T00:06:33.710Z,80.92
2024-01-20T00:11:25.880Z,81.26
2024-01-20T00:16:17.799Z,81.64
2024-01-20T00:21:09.706Z,82.40
2024-01-20T00:26:01.567Z,81.85
2024-01-20T00:30:53.893Z,81.96
2024-01-20T00:35:46.285Z,81.30
2024-01-20T00:40:38.157Z,81.54
2024-01-20T00:45:29.934Z,80.99
2024-01-20T00:50:21.837Z,81.32
2024-01-20T00:55:19.026Z,82.56
2024-01-20T01:00:12.344Z,82.40
2024-01-20T01:05:04.874Z,82.54
2024-01-20T01:09:56.657Z,83.00
2024-01-20T01:19:54.219Z,82.06
2024-01-20T01:24:46.154Z,82.06
2024-01-20T01:29:37.958Z,81.74
2024-01-20T01:34:29.745Z,80.39
2024-01-20T01:39:22.201Z,80.87
2024-01-20T01:44:13.989Z,80.97
2024-01-20T01:49:08.161Z,80.82
2024-01-20T01:54:03.156Z,82.32
2024-01-20T01:58:57.163Z,82.97
2024-01-20T02:03:53.515Z,82.60
2024-01-20T02:08:45.735Z,82.95
2024-01-20T02:13:37.772Z,83.37
2024-01-20T02:18:30.747Z,83.06
2024-01-20T02:23:23.054Z,81.20
2024-01-20T02:28:15.636Z,79.54
2024-01-20T02:33:07.506Z,79.56
2024-01-20T02:38:01.422Z,79.41
2024-01-20T02:42:53.224Z,79.41
2024-01-20T02:47:45.543Z,78.83
2024-01-20T02:52:37.340Z,79.14
2024-01-20T02:57:29.169Z,78.65
2024-01-20T03:02:21.318Z,77.68
2024-01-20T03:07:15.161Z,78.40
2024-01-20T03:12:07.565Z,78.88
2024-01-20T03:16:59.334Z,78.96
2024-01-20T03:21:51.244Z,79.18
2024-01-20T03:26:47.764Z,78.75
2024-01-20T03:31:39.592Z,78.41
2024-01-20T03:36:31.461Z,78.19
2024-01-20T03:41:23.269Z,78.21
2024-01-20T03:46:19.374Z,77.50
2024-01-20T03:51:11.178Z,78.06
2024-01-20T03:56:07.425Z,78.96
2024-01-20T04:00:59.194Z,79.48
2024-01-20T04:05:50.957Z,80.09
2024-01-20T04:10:42.899Z,80.03
2024-01-20T04:15:34.766Z,79.94
2024-01-20T04:20:26.635Z,78.54
2024-01-20T04:25:18.410Z,77.88
2024-01-20T04:30:14.226Z,77.05
2024-01-20T04:35:06.966Z,77.60
2024-01-20T04:40:00.533Z,78.32
2024-01-20T04:44:52.345Z,78.62
2024-01-20T04:49:44.331Z,79.25
2024-01-20T04:54:36.737Z,78.25
2024-01-20T04:59:30.489Z,76.78
2024-01-20T05:04:22.304Z,75.88
2024-01-20T05:09:14.727Z,76.02
2024-01-20T05:14:08.283Z,76.58
2024-01-20T05:19:00.503Z,76.76
2024-01-20T05:23:52.558Z,76.69
2024-01-20T05:28:44.364Z,76.77
2024-01-20T05:33:36.272Z,77.26
2024-01-20T05:38:28.064Z,77.17
2024-01-20T05:43:19.779Z,77.76
2024-01-20T05:48:11.645Z,77.73
2024-01-20T05:53:03.665Z,78.55
2024-01-20T05:57:55.984Z,78.73
2024-01-20T06:02:47.711Z,78.02
2024-01-20T06:07:39.458Z,77.51
2024-01-20T06:12:31.244Z,76.64
2024-01-20T06:17:23.054Z,76.82
2024-01-20T06:22:14.810Z,75.90
2024-01-20T06:27:06.543Z,75.32
2024-01-20T06:31:58.340Z,75.44
2024-01-20T06:36:50.055Z,75.29
2024-01-20T06:41:42.663Z,75.59
2024-01-20T06:46:34.362Z,75.53
2024-01-20T06:51:28.259Z,75.92
2024-01-20T06:56:20.244Z,75.93
2024-01-20T07:01:12.082Z,76.46
2024-01-20T07:06:04.596Z,76.44
2024-01-20T07:10:56.398Z,76.17
2024-01-20T07:15:48.115Z,76.81
2024-01-20T07:20:39.842Z,76.27
2024-01-20T07:25:34.498Z,76.15
2024-01-20T07:30:26.249Z,74.02
2024-01-20T07:35:18.023Z,73.85
2024-01-20T07:40:10.792Z,73.66
2024-01-20T07:45:03.665Z,73.28
2024-01-20T07:49:55.492Z,72.95
2024-01-20T07:54:47.280Z,72.38
2024-01-20T07:59:39.386Z,72.18
2024-01-20T08:04:31.117Z,71.63
2024-01-20T08:09:22.905Z,71.07
2024-01-20T08:14:14.739Z,70.57
2024-01-20T08:19:06.611Z,70.23
2024-01-20T08:24:05.853Z,69.90
2024-01-20T08:28:57.632Z,70.43
2024-01-20T08:33:49.533Z,69.37
2024-01-20T08:38:41.418Z,68.53
2024-01-20T08:43:33.692Z,68.01
2024-01-20T08:48:25.415Z,67.84
2024-01-20T08:53:17.213Z,67.06
2024-01-20T08:58:08.924Z,65.77
2024-01-20T09:03:00.725Z,65.10
2024-01-20T09:07:52.524Z,64.90
2024-01-20T09:12:44.306Z,65.46
2024-01-20T09:17:36.077Z,64.81
2024-01-20T09:22:27.835Z,64.22
2024-01-20T09:27:19.633Z,63.93
2024-01-20T09:32:11.380Z,62.86
2024-01-20T09:37:04.065Z,59.61
2024-01-20T09:41:57.150Z,57.74
2024-01-20T09:46:49.144Z,55.81
2024-01-20T09:51:55.395Z,57.70
2024-01-20T09:56:47.126Z,57.07
2024-01-20T10:01:41.807Z,57.41
2024-01-20T10:06:33.587Z,58.21
2024-01-20T10:11:25.592Z,54.97
2024-01-20T10:16:17.436Z,54.06
2024-01-20T10:21:09.231Z,55.32
2024-01-20T10:26:03.167Z,54.61
2024-01-20T10:30:55.037Z,55.07
2024-01-20T10:35:47.113Z,54.61
2024-01-20T10:40:43.243Z,53.09
2024-01-20T10:45:47.489Z,52.63
2024-01-20T10:50:52.953Z,53.95
2024-01-20T10:55:46.760Z,54.03
2024-01-20T11:00:40.577Z,53.78
2024-01-20T11:05:34.010Z,53.19
2024-01-20T11:10:26.360Z,50.73
2024-01-20T11:15:19.217Z,51.60
2024-01-20T11:20:14.661Z,52.22
2024-01-20T11:25:08.641Z,51.90
2024-01-20T11:30:10.576Z,50.97
2024-01-20T11:35:06.491Z,50.85
2024-01-20T11:40:08.960Z,52.42
2024-01-20T11:45:06.023Z,51.45
2024-01-20T11:49:59.528Z,50.55
2024-01-20T11:54:51.512Z,51.54
2024-01-20T11:59:43.303Z,51.90
2024-01-20T12:04:35.044Z,50.95
2024-01-20T12:09:28.122Z,50.78
2024-01-20T12:14:19.958Z,49.49
2024-01-20T12:19:11.766Z,49.47
2024-01-20T12:24:03.697Z,50.53
2024-01-20T12:28:55.431Z,49.72
2024-01-20T12:33:47.504Z,49.95
2024-01-20T12:38:39.398Z,50.32
2024-01-20T12:43:32.436Z,50.08
2024-01-20T12:48:24.312Z,49.87
2024-01-20T12:53:16.655Z,49.95
2024-01-20T12:58:08.773Z,49.50
2024-01-20T13:03:00.642Z,49.83
2024-01-20T13:07:52.383Z,48.67
2024-01-20T13:12:44.204Z,49.27
2024-01-20T13:17:36.805Z,49.26
2024-01-20T13:22:29.540Z,50.17
2024-01-20T13:27:21.261Z,49.80
2024-01-20T13:32:13.112Z,50.19
2024-01-20T13:37:04.954Z,50.02
2024-01-20T13:41:56.677Z,50.97
2024-01-20T13:46:48.444Z,50.74
2024-01-20T13:51:40.332Z,50.73
2024-01-20T13:56:32.120Z,49.76
2024-01-20T14:01:24.699Z,48.84
2024-01-20T14:06:17.402Z,49.60
2024-01-20T14:11:09.313Z,48.61
2024-01-20T14:16:04.747Z,50.21
2024-01-20T14:20:56.598Z,49.06
2024-01-20T14:25:48.536Z,50.17
2024-01-20T14:30:42.108Z,48.54
2024-01-20T14:35:34.439Z,49.34
2024-01-20T14:40:26.170Z,50.44
2024-01-20T14:45:18.846Z,50.01
2024-01-20T14:50:12.373Z,49.34
2024-01-20T14:55:04.491Z,50.06
2024-01-20T14:59:56.202Z,50.38
2024-01-20T15:04:48.069Z,49.13
2024-01-20T15:09:40.083Z,49.47
2024-01-20T15:14:31.890Z,50.35
2024-01-20T15:19:23.753Z,50.89
2024-01-20T15:24:16.889Z,50.89
2024-01-20T15:29:11.384Z,50.69
2024-01-20T15:34:03.246Z,51.37
2024-01-20T15:38:55.096Z,50.98
2024-01-20T15:43:46.837Z,50.84
2024-01-20T15:48:38.642Z,51.11
2024-01-20T15:53:30.375Z,52.50
2024-01-20T15:58:22.102Z,52.79
2024-01-20T16:03:13.959Z,53.57
2024-01-20T16:08:05.855Z,54.61
2024-01-20T16:13:01.664Z,55.25
2024-01-20T16:17:54.436Z,55.31
2024-01-20T16:22:46.255Z,55.84
2024-01-20T16:27:38.024Z,56.39
2024-01-20T16:32:30.370Z,56.51
2024-01-20T16:37:22.097Z,56.22
2024-01-20T16:42:13.925Z,55.28
2024-01-20T16:47:05.732Z,54.85
2024-01-20T16:52:00.072Z,55.83
2024-01-20T16:56:52.476Z,57.47
2024-01-20T17:01:44.203Z,58.81
2024-01-20T17:06:36.062Z,60.19
2024-01-20T17:11:27.867Z,60.86
2024-01-20T17:16:20.399Z,61.63
2024-01-20T17:21:19.494Z,63.50
2024-01-20T17:26:11.945Z,64.76
2024-01-20T17:31:04.148Z,65.87
2024-01-20T17:35:55.847Z,66.16
2024-01-20T17:40:49.953Z,65.68
2024-01-20T17:45:42.097Z,66.12
2024-01-20T17:50:33.892Z,66.69
2024-01-20T17:55:27.247Z,66.94
2024-01-20T18:00:19.276Z,67.45
2024-01-20T18:05:11.775Z,68.17
2024-01-20T18:10:04.076Z,68.74
2024-01-20T18:14:55.867Z,69.45
2024-01-20T18:19:47.731Z,70.26
2024-01-20T18:24:41.026Z,70.59
2024-01-20T18:29:32.824Z,71.46
2024-01-20T18:34:24.630Z,71.53
2024-01-20T18:39:16.429Z,71.55
2024-01-20T18:44:08.192Z,71.64
2024-01-20T18:49:00.019Z,71.94
2024-01-20T18:53:51.824Z,71.93
2024-01-20T18:58:43.633Z,72.33
2024-01-20T19:03:36.436Z,72.19
2024-01-20T19:08:28.201Z,72.83
2024-01-20T19:13:19.946Z,72.33
2024-01-20T19:18:11.771Z,72.21
2024-01-20T19:23:03.789Z,72.59
2024-01-20T19:27:56.407Z,72.89
2024-01-20T19:32:49.743Z,73.14
2024-01-20T19:37:41.506Z,73.26
2024-01-20T19:42:33.283Z,74.08
2024-01-20T19:47:25.079Z,75.05
2024-01-20T19:52:17.843Z,75.30
2024-01-20T19:57:09.594Z,75.44
2024-01-20T20:02:02.429Z,75.91
2024-01-20T20:06:54.184Z,76.15
2024-01-20T20:11:46.553Z,76.19
2024-01-20T20:16:40.571Z,76.30
2024-01-20T20:21:33.698Z,76.22
2024-01-20T20:26:26.165Z,76.89
2024-01-20T20:31:20.074Z,77.16
2024-01-20T20:36:12.211Z,76.88
2024-01-20T20:41:04.168Z,77.53
2024-01-20T20:45:55.958Z,77.72
2024-01-20T20:50:47.752Z,77.15
2024-01-20T20:55:39.824Z,76.08
2024-01-20T21:00:31.618Z,76.05
2024-01-20T21:05:23.485Z,75.37
2024-01-20T21:10:19.359Z,75.91
2024-01-20T21:15:12.873Z,75.73
2024-01-20T21:20:05.861Z,76.08
2024-01-20T21:24:57.641Z,76.53
2024-01-20T21:29:49.871Z,77.25
2024-01-20T21:34:41.739Z,77.93
2024-01-20T21:39:33.560Z,78.13
2024-01-20T21:44:26.751Z,79.05
2024-01-20T21:49:19.026Z,78.83
2024-01-20T21:54:14.538Z,78.52
2024-01-20T21:59:06.307Z,78.73
2024-01-20T22:03:58.099Z,78.29
2024-01-20T22:08:49.847Z,78.47
2024-01-20T22:13:41.562Z,78.34
2024-01-20T22:18:33.460Z,77.97
2024-01-20T22:23:25.306Z,78.59
2024-01-20T22:28:17.022Z,78.90
2024-01-20T22:33:08.789Z,79.46
2024-01-20T22:38:00.859Z,79.61
2024-01-20T22:42:52.694Z,79.90
2024-01-20T22:47:45.422Z,80.18
2024-01-20T22:52:37.866Z,80.17
2024-01-20T22:57:30.334Z,79.09
2024-01-20T23:02:27.191Z,78.33
2024-01-20T23:07:18.921Z,79.02
2024-01-20T23:12:11.084Z,79.04
2024-01-20T23:17:13.234Z,77.72
2024-01-20T23:22:05.693Z,78.29
2024-01-20T23:26:57.419Z,78.78
2024-01-20T23:31:49.129Z,78.83
2024-01-20T23:36:40.886Z,78.22
2024-01-20T23:41:32.608Z,78.60
2024-01-20T23:46:24.360Z,79.07
2024-01-20T23:51:16.670Z,78.41
2024-01-20T23:56:08.450Z,78.95
